Time;durP1;ratioP1;P1;durP2;ratioP2;P2;SDS_P1;SDS_P2;PMS_P1;PMS_P2;Temp;Humidity;BMP_temperature;BMP_pressure;BME280_temperature;BME280_humidity;BME280_pressure;Samples;Min_cycle;Max_cycle;Signal;HPM_P1;HPM_P2
2023/06/14 00:01:25;;;;;;;11.10;7.00;;;20.60;1.00;;;;;;5073028;28;20173;-67
2023/06/14 00:03:50;;;;;;;9.70;7.57;;;20.60;1.00;;;;;;5073137;28;20173;-68
2023/06/14 00:06:17;;;;;;;8.02;7.03;;;20.60;1.00;;;;;;5073020;28;20337;-67
2023/06/14 00:08:42;;;;;;;11.25;7.55;;;20.60;1.00;;;;;;5072786;28;20226;-66
2023/06/14 00:11:08;;;;;;;8.00;7.25;;;20.50;1.00;;;;;;5072613;28;20655;-66
2023/06/14 00:13:33;;;;;;;10.75;7.78;;;20.50;1.00;;;;;;5072650;28;20650;-68
2023/06/14 00:15:59;;;;;;;13.63;7.70;;;20.40;1.00;;;;;;5072947;28;20164;-67
2023/06/14 00:18:29;;;;;;;7.43;6.80;;;20.30;1.00;;;;;;5073012;28;20169;-67
2023/06/14 00:20:55;;;;;;;8.20;7.07;;;20.30;1.00;;;;;;5072650;28;20527;-67
2023/06/14 00:23:21;;;;;;;7.90;6.70;;;20.30;1.00;;;;;;5072741;28;20651;-67
2023/06/14 00:25:47;;;;;;;12.45;6.97;;;20.30;1.00;;;;;;5072872;28;20165;-67
2023/06/14 00:28:13;;;;;;;8.43;6.72;;;20.30;1.00;;;;;;5072150;28;20650;-67
2023/06/14 00:30:38;;;;;;;8.32;7.18;;;20.30;1.00;;;;;;5072790;28;20244;-66
2023/06/14 00:33:04;;;;;;;7.80;7.00;;;20.20;1.00;;;;;;5072642;28;20578;-67
2023/06/14 00:35:30;;;;;;;10.30;6.93;;;20.20;1.00;;;;;;5072510;28;20671;-68
2023/06/14 00:37:55;;;;;;;7.85;7.15;;;20.10;1.00;;;;;;5072546;28;20207;-68
2023/06/14 00:40:21;;;;;;;10.32;6.70;;;20.10;27.40;;;;;;5072310;28;20688;-70
2023/06/14 00:42:47;;;;;;;6.97;6.38;;;20.10;47.00;;;;;;5072645;28;20169;-68
2023/06/14 00:45:13;;;;;;;8.43;7.00;;;20.10;5.60;;;;;;5072663;28;20169;-68
2023/06/14 00:47:41;;;;;;;9.35;7.55;;;20.10;1.00;;;;;;5072463;28;20536;-67
2023/06/14 00:50:08;;;;;;;7.80;6.97;;;20.10;1.00;;;;;;5072587;28;20298;-68
2023/06/14 00:52:34;;;;;;;10.15;6.75;;;20.00;1.00;;;;;;5072334;28;20291;-69
2023/06/14 00:55:01;;;;;;;8.00;7.30;;;20.00;80.90;;;;;;5072132;28;20624;-67
2023/06/14 00:57:27;;;;;;;8.88;7.20;;;20.00;99.90;;;;;;5072337;28;20569;-67
2023/06/14 00:59:54;;;;;;;9.85;7.45;;;19.90;99.90;;;;;;5072294;28;20180;-65
2023/06/14 01:02:20;;;;;;;8.95;7.38;;;19.90;99.90;;;;;;5072431;28;20208;-67
2023/06/14 01:04:48;;;;;;;12.65;7.57;;;19.90;99.90;;;;;;5072478;28;20200;-65
2023/06/14 01:07:26;;;;;;;10.05;6.88;;;19.80;99.90;;;;;;5073232;28;20164;-67
2023/06/14 01:10:20;;;;;;;12.98;7.47;;;19.70;99.90;;;;;;5075581;28;20198;-67
2023/06/14 01:13:05;;;;;;;10.25;7.47;;;19.70;1.00;;;;;;5039204;28;20625;-67
2023/06/14 01:15:31;;;;;;;24.15;8.27;;;19.60;1.00;;;;;;5076011;28;20237;-66
2023/06/14 01:18:02;;;;;;;16.83;8.20;;;19.70;1.00;;;;;;5075772;28;20211;-67
2023/06/14 01:20:30;;;;;;;8.52;7.72;;;19.70;1.00;;;;;;5075916;28;20181;-67
2023/06/14 01:22:56;;;;;;;8.98;7.45;;;19.70;1.00;;;;;;5075948;28;20230;-66
2023/06/14 01:25:23;;;;;;;8.85;7.22;;;19.60;1.00;;;;;;5075472;28;20180;-67
2023/06/14 01:27:51;;;;;;;8.63;7.53;;;19.60;1.00;;;;;;5057545;28;20227;-67
2023/06/14 01:30:18;;;;;;;9.05;7.15;;;19.60;99.90;;;;;;5075650;28;20172;-67
2023/06/14 01:32:46;;;;;;;10.50;7.90;;;19.60;99.90;;;;;;5075392;28;20226;-66
2023/06/14 01:35:11;;;;;;;9.98;7.38;;;19.50;99.90;;;;;;5074772;28;20192;-67
2023/06/14 01:37:39;;;;;;;10.35;7.93;;;19.50;99.90;;;;;;5075512;28;20206;-67
2023/06/14 01:40:07;;;;;;;8.77;7.88;;;19.50;99.90;;;;;;5075022;28;20249;-66
2023/06/14 01:42:35;;;;;;;8.60;7.75;;;19.40;99.90;;;;;;5075247;28;20291;-66
2023/06/14 01:45:03;;;;;;;9.43;8.63;;;19.40;1.00;;;;;;5075329;28;20172;-66
2023/06/14 01:47:30;;;;;;;13.57;8.15;;;19.40;99.90;;;;;;5075157;28;20255;-65
2023/06/14 01:49:56;;;;;;;9.77;7.88;;;19.40;1.00;;;;;;5075256;28;20169;-67
2023/06/14 01:52:22;;;;;;;8.85;7.85;;;19.30;55.90;;;;;;5075212;28;20684;-67
2023/06/14 01:54:49;;;;;;;11.25;8.02;;;19.20;1.00;;;;;;5074960;28;20250;-67
2023/06/14 01:57:15;;;;;;;11.40;8.07;;;19.20;1.00;;;;;;5074990;28;20241;-67
2023/06/14 01:59:41;;;;;;;9.82;8.30;;;19.20;1.00;;;;;;5057008;28;20255;-66
2023/06/14 02:02:06;;;;;;;9.15;8.30;;;19.20;1.00;;;;;;5075110;28;20169;-66
2023/06/14 02:04:32;;;;;;;9.65;8.65;;;19.20;1.00;;;;;;5074848;28;20654;-66
2023/06/14 02:06:57;;;;;;;9.43;8.40;;;19.10;1.00;;;;;;5074886;28;20164;-66
2023/06/14 02:09:23;;;;;;;10.77;8.45;;;19.10;99.90;;;;;;5074524;28;20161;-66
2023/06/14 02:11:49;;;;;;;11.77;8.60;;;19.10;22.00;;;;;;5074773;28;20228;-66
2023/06/14 02:14:16;;;;;;;10.98;8.30;;;19.00;99.90;;;;;;5074650;28;20533;-67
2023/06/14 02:16:48;;;;;;;10.80;9.23;;;18.90;1.00;;;;;;5074566;28;20179;-66
2023/06/14 02:19:17;;;;;;;13.15;8.50;;;18.90;1.00;;;;;;5074515;28;20196;-67
2023/06/14 02:21:43;;;;;;;9.32;8.48;;;18.90;1.00;;;;;;5074588;28;20195;-68
2023/06/14 02:24:09;;;;;;;11.88;8.68;;;18.90;1.00;;;;;;5074142;28;20161;-67
2023/06/14 02:26:34;;;;;;;9.73;8.63;;;18.80;1.00;;;;;;5074399;28;20230;-66
2023/06/14 02:29:00;;;;;;;10.48;8.70;;;18.80;99.90;;;;;;5074540;28;20560;-67
2023/06/14 02:31:27;;;;;;;10.13;8.63;;;18.80;1.00;;;;;;5074232;28;20598;-66
2023/06/14 02:33:52;;;;;;;10.60;8.47;;;18.70;99.90;;;;;;5074209;28;20623;-66
2023/06/14 02:36:18;;;;;;;10.33;8.87;;;18.70;1.00;;;;;;5073955;28;20303;-65
2023/06/14 02:38:43;;;;;;;11.50;9.30;;;18.70;1.00;;;;;;5073671;28;20169;-65
2023/06/14 02:41:09;;;;;;;11.30;9.00;;;18.60;1.00;;;;;;5073830;28;20250;-66
2023/06/14 02:43:36;;;;;;;15.07;9.13;;;18.60;99.90;;;;;;5074066;28;20169;-66
2023/06/14 02:46:01;;;;;;;13.77;8.63;;;18.60;1.00;;;;;;5074086;28;20177;-66
2023/06/14 02:48:28;;;;;;;11.70;9.40;;;18.50;99.90;;;;;;5073964;28;20230;-66
2023/06/14 02:50:53;;;;;;;9.90;8.90;;;18.60;99.90;;;;;;5073563;28;20208;-66
2023/06/14 02:53:19;;;;;;;12.77;8.93;;;18.50;1.00;;;;;;5073942;28;20207;-66
2023/06/14 02:55:46;;;;;;;10.03;9.13;;;18.40;1.00;;;;;;5073740;28;20610;-66
2023/06/14 02:58:12;;;;;;;11.55;9.43;;;18.40;1.00;;;;;;5073779;28;20632;-66
2023/06/14 03:00:40;;;;;;;9.70;8.80;;;18.40;1.00;;;;;;5073781;28;20181;-66
2023/06/14 03:03:13;;;;;;;11.90;9.63;;;18.40;1.00;;;;;;5073664;28;20181;-66
2023/06/14 03:05:47;;;;;;;12.00;9.73;;;18.40;13.20;;;;;;5073420;28;20176;-66
2023/06/14 03:08:16;;;;;;;12.07;9.40;;;18.30;99.90;;;;;;5055973;28;20501;-66
2023/06/14 03:10:48;;;;;;;9.60;8.80;;;18.30;99.90;;;;;;5073569;28;20172;-66
2023/06/14 03:13:15;;;;;;;15.50;9.20;;;18.20;1.00;;;;;;5073722;28;20180;-66
2023/06/14 03:15:43;;;;;;;11.97;9.30;;;18.20;29.50;;;;;;5073473;28;20168;-66
2023/06/14 03:18:09;;;;;;;11.03;9.13;;;18.20;1.00;;;;;;5073131;28;20693;-66
2023/06/14 03:20:35;;;;;;;10.80;9.70;;;18.10;99.90;;;;;;5072605;28;20176;-66
2023/06/14 03:23:03;;;;;;;12.20;9.60;;;18.10;99.90;;;;;;5073239;28;20165;-67
2023/06/14 03:25:35;;;;;;;10.47;9.47;;;18.00;1.00;;;;;;5073433;28;20693;-67
2023/06/14 03:28:01;;;;;;;12.97;9.30;;;18.00;1.00;;;;;;5073316;28;20271;-67
2023/06/14 03:30:27;;;;;;;11.13;9.87;;;18.00;1.00;;;;;;5072569;28;20204;-67
2023/06/14 03:32:52;;;;;;;10.70;9.60;;;18.00;1.00;;;;;;5072967;28;20236;-67
2023/06/14 03:35:18;;;;;;;14.00;10.53;;;17.90;1.00;;;;;;5072680;28;20211;-67
2023/06/14 03:37:45;;;;;;;13.67;9.00;;;17.90;1.00;;;;;;5073172;28;20178;-66
2023/06/14 03:40:13;;;;;;;12.23;9.53;;;17.90;37.90;;;;;;5072891;28;20628;-68
2023/06/14 03:42:39;;;;;;;13.70;10.17;;;17.90;99.90;;;;;;5073133;28;20220;-67
2023/06/14 03:45:06;;;;;;;11.27;9.40;;;17.90;11.20;;;;;;5072919;28;20172;-67
2023/06/14 03:47:31;;;;;;;14.50;9.50;;;18.00;1.00;;;;;;5072676;28;20177;-67
2023/06/14 03:49:57;;;;;;;13.47;10.50;;;18.10;1.00;;;;;;5072501;28;20264;-67
2023/06/14 03:52:23;;;;;;;10.57;9.20;;;18.20;99.90;;;;;;5072283;28;20694;-66
2023/06/14 03:54:49;;;;;;;10.03;9.07;;;18.50;1.00;;;;;;5072946;28;20531;-67
2023/06/14 03:57:15;;;;;;;13.98;9.50;;;18.50;1.00;;;;;;5072763;28;20175;-67
2023/06/14 03:59:41;;;;;;;12.25;9.45;;;18.60;46.60;;;;;;5072858;28;20172;-68
2023/06/14 04:02:09;;;;;;;12.07;9.57;;;18.80;1.00;;;;;;5072644;28;20263;-66
2023/06/14 04:04:35;;;;;;;14.32;9.45;;;18.90;1.00;;;;;;5072312;28;20259;-67
2023/06/14 04:07:03;;;;;;;12.57;9.85;;;19.00;80.40;;;;;;5072738;28;20198;-67
2023/06/14 04:09:29;;;;;;;10.70;9.52;;;19.30;99.90;;;;;;5072699;28;20168;-67
2023/06/14 04:11:55;;;;;;;10.57;9.00;;;19.30;99.90;;;;;;5072629;28;20306;-68
2023/06/14 04:14:21;;;;;;;16.02;9.95;;;19.50;22.80;;;;;;5072093;28;20623;-67
2023/06/14 04:16:48;;;;;;;10.55;9.23;;;19.80;99.90;;;;;;5072169;28;20172;-68
2023/06/14 04:19:15;;;;;;;10.85;9.13;;;20.10;1.00;;;;;;5072358;28;20620;-68
2023/06/14 04:21:41;;;;;;;10.20;9.20;;;20.30;99.90;;;;;;5072088;28;20631;-68
2023/06/14 04:24:06;;;;;;;12.52;9.50;;;20.60;1.00;;;;;;5072405;28;20244;-67
2023/06/14 04:26:33;;;;;;;13.20;9.88;;;20.80;1.00;;;;;;5071668;28;20180;-66
2023/06/14 04:29:02;;;;;;;14.73;9.52;;;21.00;99.90;;;;;;5071970;28;20191;-66
2023/06/14 04:31:33;;;;;;;11.30;9.02;;;21.60;84.40;;;;;;5071295;28;20540;-67
2023/06/14 04:33:59;;;;;;;10.90;9.80;;;21.80;1.00;;;;;;5071690;28;20192;-68
2023/06/14 04:36:26;;;;;;;13.13;9.10;;;22.30;1.00;;;;;;5071894;28;20224;-68
2023/06/14 04:38:54;;;;;;;10.60;9.50;;;22.40;1.00;;;;;;5071929;28;20188;-67
2023/06/14 04:41:22;;;;;;;11.82;9.07;;;22.10;1.00;;;;;;5073703;28;20193;-68
2023/06/14 04:43:49;;;;;;;10.43;9.38;;;22.50;1.00;;;;;;5075932;28;20501;-68
2023/06/14 04:46:15;;;;;;;11.10;9.43;;;22.90;1.00;;;;;;5075871;28;20180;-68
2023/06/14 04:48:42;;;;;;;13.00;9.48;;;22.80;99.90;;;;;;5075927;28;20173;-68
2023/06/14 04:51:09;;;;;;;10.18;8.88;;;23.40;99.90;;;;;;5075730;28;20628;-68
2023/06/14 04:53:35;;;;;;;10.00;8.98;;;23.40;99.90;;;;;;5075701;28;20245;-68
2023/06/14 04:56:01;;;;;;;13.18;8.93;;;23.80;99.90;;;;;;5075818;28;20173;-69
2023/06/14 04:58:28;;;;;;;12.15;8.73;;;24.10;99.90;;;;;;5075698;28;20204;-68
2023/06/14 05:00:56;;;;;;;12.15;9.30;;;24.10;99.90;;;;;;5074994;28;20211;-68
2023/06/14 05:03:23;;;;;;;13.48;8.85;;;24.50;99.90;;;;;;5074990;28;20529;-68
2023/06/14 05:05:50;;;;;;;10.75;9.27;;;24.90;99.90;;;;;;5075870;28;20169;-69
2023/06/14 05:08:16;;;;;;;11.57;9.13;;;25.70;99.90;;;;;;5075039;28;20169;-71
2023/06/14 05:10:42;;;;;;;16.73;9.25;;;26.30;99.90;;;;;;5075372;28;20219;-69
2023/06/14 05:13:07;;;;;;;13.63;8.63;;;26.90;99.90;;;;;;5075049;28;20208;-70
2023/06/14 05:15:33;;;;;;;15.63;9.75;;;26.90;98.90;;;;;;5075463;28;20243;-70
2023/06/14 05:17:59;;;;;;;14.05;9.30;;;27.40;88.00;;;;;;5075192;28;20231;-69
2023/06/14 05:20:26;;;;;;;11.13;9.55;;;28.10;50.80;;;;;;5075097;28;20667;-70
2023/06/14 05:22:53;;;;;;;10.02;9.02;;;29.00;21.70;;;;;;5075060;28;20188;-69
2023/06/14 05:25:20;;;;;;;15.15;9.20;;;28.20;9.70;;;;;;5057266;28;20176;-70
2023/06/14 05:27:46;;;;;;;10.30;8.43;;;27.10;17.40;;;;;;5075271;28;20173;-70
2023/06/14 05:30:13;;;;;;;12.13;9.05;;;27.90;16.00;;;;;;5056593;28;20581;-70
2023/06/14 05:32:39;;;;;;;12.32;9.05;;;28.20;8.10;;;;;;5074312;28;20219;-71
2023/06/14 05:35:05;;;;;;;11.50;9.02;;;28.30;1.00;;;;;;5075249;28;20511;-71
2023/06/14 05:37:31;;;;;;;9.82;8.90;;;28.90;1.00;;;;;;5074296;28;20225;-69
2023/06/14 05:39:57;;;;;;;10.35;8.20;;;28.80;1.00;;;;;;5074177;28;20179;-71
2023/06/14 05:42:22;;;;;;;10.93;8.77;;;27.70;1.00;;;;;;5074214;28;20285;-70
2023/06/14 05:44:48;;;;;;;10.57;9.05;;;28.10;1.00;;;;;;5073600;28;20164;-71
2023/06/14 05:47:14;;;;;;;14.45;8.57;;;27.10;1.00;;;;;;5073609;28;20651;-69
2023/06/14 05:49:40;;;;;;;11.13;8.45;;;27.80;1.00;;;;;;5073880;28;20586;-69
2023/06/14 05:52:06;;;;;;;10.00;8.68;;;28.40;1.00;;;;;;5074289;28;20269;-70
2023/06/14 05:54:31;;;;;;;9.93;8.73;;;28.90;1.00;;;;;;5073482;28;20208;-71
2023/06/14 05:57:01;;;;;;;11.98;9.10;;;29.10;1.00;;;;;;5073544;28;20168;-70
2023/06/14 05:59:27;;;;;;;10.40;8.70;;;28.20;1.00;;;;;;5073947;28;20259;-70
2023/06/14 06:01:53;;;;;;;10.85;8.18;;;28.20;1.00;;;;;;5074052;28;20604;-70
2023/06/14 06:04:19;;;;;;;9.93;8.93;;;27.10;1.00;;;;;;5073860;28;20196;-72
2023/06/14 06:06:46;;;;;;;11.02;9.05;;;27.30;1.00;;;;;;5073535;28;20547;-69
2023/06/14 06:09:12;;;;;;;10.07;9.05;;;28.10;1.00;;;;;;5073701;28;20510;-70
2023/06/14 06:11:37;;;;;;;10.30;8.60;;;28.20;1.00;;;;;;5073299;28;20195;-71
2023/06/14 06:14:03;;;;;;;9.75;8.75;;;27.90;1.00;;;;;;5072762;28;20200;-70
2023/06/14 06:16:29;;;;;;;11.35;8.43;;;27.80;1.00;;;;;;5073887;28;20240;-71
2023/06/14 06:18:54;;;;;;;10.80;7.85;;;28.50;1.00;;;;;;5073403;28;20219;-70
2023/06/14 06:21:20;;;;;;;9.02;7.97;;;28.80;1.00;;;;;;5073805;28;20588;-70
2023/06/14 06:23:45;;;;;;;10.40;8.70;;;28.50;1.00;;;;;;5073110;28;20168;-71
2023/06/14 06:26:11;;;;;;;9.90;8.90;;;28.10;1.00;;;;;;5054748;28;20506;-70
2023/06/14 06:28:36;;;;;;;9.00;7.90;;;28.30;1.00;;;;;;5072466;28;20226;-70
2023/06/14 06:31:03;;;;;;;13.18;8.60;;;28.40;1.00;;;;;;5072608;28;20492;-71
2023/06/14 06:33:28;;;;;;;9.52;7.97;;;28.90;1.00;;;;;;5072362;28;20176;-70
2023/06/14 06:35:54;;;;;;;12.52;8.15;;;28.40;1.00;;;;;;5072452;28;20213;-70
2023/06/14 06:38:19;;;;;;;10.63;8.63;;;27.50;1.00;;;;;;5072638;28;20169;-71
2023/06/14 06:40:45;;;;;;;8.75;7.75;;;27.10;1.00;;;;;;5072914;28;20567;-70
2023/06/14 06:43:13;;;;;;;13.05;8.80;;;27.40;1.00;;;;;;5071692;28;20255;-70
2023/06/14 06:45:39;;;;;;;10.63;7.63;;;28.50;1.00;;;;;;5072653;28;20616;-70
2023/06/14 06:48:05;;;;;;;29.63;10.30;;;28.90;1.00;;;;;;5071932;28;20164;-70
2023/06/14 06:50:31;;;;;;;8.80;7.90;;;28.90;1.00;;;;;;5072476;28;20242;-71
2023/06/14 06:52:57;;;;;;;8.57;7.72;;;28.80;1.00;;;;;;5071662;28;20216;-71
2023/06/14 06:55:23;;;;;;;11.88;7.10;;;28.80;1.00;;;;;;5072598;28;20249;-70
2023/06/14 06:57:52;;;;;;;11.63;7.80;;;29.60;1.00;;;;;;5072141;28;20639;-71
2023/06/14 07:00:18;;;;;;;7.88;7.18;;;29.30;1.00;;;;;;5072579;28;20165;-71
2023/06/14 07:02:44;;;;;;;10.40;7.45;;;28.40;1.00;;;;;;5072765;28;20161;-70
2023/06/14 07:05:09;;;;;;;8.40;7.50;;;27.80;1.00;;;;;;5071758;28;20156;-71
2023/06/14 07:07:35;;;;;;;7.78;7.05;;;28.60;1.00;;;;;;5072384;28;20172;-69
2023/06/14 07:10:04;;;;;;;8.25;7.43;;;28.90;1.00;;;;;;5072854;28;20263;-68
2023/06/14 07:12:31;;;;;;;8.95;6.88;;;28.10;1.00;;;;;;5071458;28;20239;-70
2023/06/14 07:14:57;;;;;;;9.02;7.20;;;29.20;1.00;;;;;;5072550;28;20176;-71
2023/06/14 07:17:22;;;;;;;11.82;7.80;;;30.20;1.00;;;;;;5072433;28;20172;-70
2023/06/14 07:19:48;;;;;;;9.90;7.43;;;31.20;1.00;;;;;;5072547;28;20168;-69
2023/06/14 07:22:14;;;;;;;8.88;7.38;;;31.70;1.00;;;;;;5072439;28;20161;-71
2023/06/14 07:24:45;;;;;;;8.75;6.72;;;32.40;1.00;;;;;;5072653;28;20665;-70
2023/06/14 07:27:16;;;;;;;9.95;7.25;;;33.80;1.00;;;;;;5055113;28;20658;-71
2023/06/14 07:29:41;;;;;;;7.60;7.00;;;34.10;1.00;;;;;;5072396;28;20230;-72
2023/06/14 07:32:07;;;;;;;10.23;7.15;;;33.40;1.00;;;;;;5054637;28;20208;-71
2023/06/14 07:34:33;;;;;;;7.45;6.80;;;33.60;1.00;;;;;;5071944;28;20164;-70
2023/06/14 07:36:58;;;;;;;9.85;7.05;;;32.00;1.00;;;;;;5072205;28;20687;-71
2023/06/14 07:39:24;;;;;;;41.83;10.77;;;32.70;1.00;;;;;;5072152;28;20177;-71
2023/06/14 07:41:50;;;;;;;15.00;6.85;;;33.00;1.00;;;;;;5071989;28;20188;-70
2023/06/14 07:44:16;;;;;;;9.57;7.40;;;32.50;1.00;;;;;;5072417;28;20191;-70
2023/06/14 07:46:41;;;;;;;13.88;6.90;;;32.90;1.00;;;;;;5072887;28;20221;-70
2023/06/14 07:49:07;;;;;;;7.45;6.75;;;34.20;1.00;;;;;;5072405;28;20239;-71
2023/06/14 07:51:32;;;;;;;7.20;6.70;;;34.60;1.00;;;;;;5071500;28;20211;-71
2023/06/14 07:54:03;;;;;;;6.85;5.95;;;34.60;1.00;;;;;;5072500;28;20684;-70
2023/06/14 07:56:28;;;;;;;11.13;6.43;;;35.50;1.00;;;;;;5072011;28;20177;-70
2023/06/14 07:58:54;;;;;;;7.28;6.53;;;34.00;1.00;;;;;;5071720;28;20522;-69
2023/06/14 08:01:20;;;;;;;7.50;6.35;;;33.10;1.00;;;;;;5071962;28;20175;-71
2023/06/14 08:03:45;;;;;;;7.13;6.53;;;33.90;1.00;;;;;;5071730;28;20198;-71
2023/06/14 08:06:11;;;;;;;7.97;6.07;;;34.60;1.00;;;;;;5072144;28;20214;-70
2023/06/14 08:08:37;;;;;;;7.20;6.60;;;35.00;1.00;;;;;;5071625;28;20761;-66
2023/06/14 08:11:03;;;;;;;8.75;6.55;;;35.70;1.00;;;;;;5070938;28;20263;-67
2023/06/14 08:13:28;;;;;;;7.88;6.22;;;35.60;1.00;;;;;;5071914;28;20612;-67
2023/06/14 08:15:55;;;;;;;9.75;6.32;;;34.50;1.00;;;;;;5072972;28;20492;-70
2023/06/14 08:18:20;;;;;;;6.60;6.10;;;35.20;1.00;;;;;;5076412;28;20275;-69
2023/06/14 08:20:46;;;;;;;10.45;5.85;;;35.40;1.00;;;;;;5076238;28;20623;-69
2023/06/14 08:23:13;;;;;;;7.32;6.40;;;35.30;1.00;;;;;;5075607;28;20255;-69
2023/06/14 08:25:38;;;;;;;6.63;6.03;;;35.70;1.00;;;;;;5076022;28;20164;-68
2023/06/14 08:28:04;;;;;;;8.90;5.75;;;35.70;1.00;;;;;;5076037;28;20176;-68
2023/06/14 08:30:30;;;;;;;10.95;7.03;;;35.50;1.00;;;;;;5076158;28;20175;-68
2023/06/14 08:32:56;;;;;;;9.02;6.10;;;35.70;1.00;;;;;;5075531;28;20203;-70
2023/06/14 08:35:22;;;;;;;13.90;6.82;;;36.80;1.00;;;;;;5075184;28;20195;-70
2023/06/14 08:37:49;;;;;;;8.00;6.25;;;36.00;1.00;;;;;;5075964;28;20171;-69
2023/06/14 08:40:22;;;;;;;6.65;5.85;;;35.20;1.00;;;;;;5075377;28;20188;-68
2023/06/14 08:42:53;;;;;;;6.40;5.90;;;33.50;1.00;;;;;;5075882;28;20172;-69
2023/06/14 08:45:21;;;;;;;7.13;6.28;;;32.90;1.00;;;;;;5075835;28;20176;-68
2023/06/14 08:47:51;;;;;;;8.07;6.60;;;31.50;1.00;;;;;;5075363;28;20707;-69
2023/06/14 08:50:20;;;;;;;7.25;6.07;;;31.40;1.00;;;;;;5075186;28;20498;-68
2023/06/14 08:52:50;;;;;;;9.60;6.53;;;30.80;1.00;;;;;;5075087;28;20216;-69
2023/06/14 08:55:17;;;;;;;7.32;6.10;;;31.20;1.00;;;;;;5075927;28;20654;-69
2023/06/14 08:57:44;;;;;;;7.93;5.93;;;31.30;1.00;;;;;;5075607;28;20192;-68
2023/06/14 09:00:12;;;;;;;9.35;6.50;;;31.60;1.00;;;;;;5055468;28;20173;-69
2023/06/14 09:02:43;;;;;;;7.57;6.00;;;31.90;1.00;;;;;;5055401;28;20183;-68
2023/06/14 09:05:10;;;;;;;6.93;6.20;;;31.90;1.00;;;;;;5055562;28;20177;-68
2023/06/14 09:07:38;;;;;;;8.43;6.25;;;32.10;1.00;;;;;;5055126;28;20171;-68
2023/06/14 09:10:14;;;;;;;7.05;6.18;;;32.20;1.00;;;;;;5055001;28;20243;-70
2023/06/14 09:12:40;;;;;;;7.40;6.70;;;33.30;1.00;;;;;;5054567;28;20209;-67
2023/06/14 09:15:08;;;;;;;7.18;6.47;;;32.70;1.00;;;;;;5055563;28;20655;-67
2023/06/14 09:17:37;;;;;;;7.47;6.85;;;32.50;1.00;;;;;;5054832;28;20260;-68
2023/06/14 09:20:06;;;;;;;7.82;6.18;;;32.90;1.00;;;;;;5055115;28;20174;-69
2023/06/14 09:22:32;;;;;;;7.15;6.28;;;33.00;1.00;;;;;;5037345;28;20539;-68
2023/06/14 09:24:58;;;;;;;10.60;6.88;;;32.50;1.00;;;;;;5054694;28;20494;-67
2023/06/14 09:27:26;;;;;;;7.93;6.18;;;32.90;1.00;;;;;;5054348;28;20219;-69
2023/06/14 09:29:52;;;;;;;6.90;6.22;;;32.40;1.00;;;;;;5054945;28;20221;-68
2023/06/14 09:32:17;;;;;;;8.05;6.93;;;31.80;1.00;;;;;;5054630;28;20271;-68
2023/06/14 09:34:44;;;;;;;7.95;6.85;;;31.00;1.00;;;;;;5054699;28;20636;-67
2023/06/14 09:37:09;;;;;;;10.82;6.90;;;31.10;1.00;;;;;;5053960;28;20225;-69
2023/06/14 09:39:35;;;;;;;7.82;6.20;;;32.00;1.00;;;;;;5054344;28;20267;-67
2023/06/14 09:42:01;;;;;;;9.65;6.60;;;33.10;1.00;;;;;;5053174;28;20197;-68
2023/06/14 09:44:29;;;;;;;6.63;6.13;;;32.90;1.00;;;;;;5054288;28;20166;-67
2023/06/14 09:46:56;;;;;;;6.38;5.78;;;32.70;1.00;;;;;;5054107;28;20177;-66
2023/06/14 09:49:21;;;;;;;9.85;5.93;;;31.50;1.00;;;;;;5054259;28;20166;-67
2023/06/14 09:51:52;;;;;;;6.05;5.55;;;30.90;1.00;;;;;;5054209;28;20250;-67
2023/06/14 09:54:22;;;;;;;8.98;5.88;;;31.20;1.00;;;;;;5053841;28;20173;-67
2023/06/14 09:56:50;;;;;;;6.45;5.90;;;31.90;1.00;;;;;;5054145;28;20170;-67
2023/06/14 09:59:21;;;;;;;7.85;6.20;;;31.30;1.00;;;;;;5054220;28;20193;-67
2023/06/14 10:01:49;;;;;;;7.03;6.25;;;31.70;1.00;;;;;;5053601;28;20195;-68
2023/06/14 10:04:18;;;;;;;8.02;6.78;;;32.50;1.00;;;;;;5053544;28;20173;-68
2023/06/14 10:06:45;;;;;;;8.52;5.80;;;33.00;1.00;;;;;;5054020;28;20161;-68
2023/06/14 10:09:12;;;;;;;6.93;5.70;;;33.40;1.00;;;;;;5053977;28;20564;-68
2023/06/14 10:11:43;;;;;;;8.93;6.07;;;32.40;1.00;;;;;;5053585;28;20243;-67
2023/06/14 10:14:11;;;;;;;6.97;5.85;;;31.40;1.00;;;;;;5053944;28;20181;-66
2023/06/14 10:16:57;;;;;;;6.10;5.40;;;31.00;1.00;;;;;;5053625;28;20177;-68
2023/06/14 10:19:34;;;;;;;6.35;5.72;;;30.70;1.00;;;;;;5055227;28;20410;-67
2023/06/14 10:22:06;;;;;;;7.82;5.38;;;31.00;1.00;;;;;;5053828;28;20485;-68
2023/06/14 10:24:50;;;;;;;6.45;5.47;;;31.50;1.00;;;;;;5054150;28;20173;-67
2023/06/14 10:27:23;;;;;;;6.57;5.55;;;31.80;1.00;;;;;;5053642;28;20177;-67
2023/06/14 10:29:57;;;;;;;7.60;5.30;;;29.70;1.00;;;;;;5053206;28;20246;-67
2023/06/14 10:32:24;;;;;;;5.65;5.07;;;29.20;1.00;;;;;;5053259;28;20238;-67
2023/06/14 10:34:58;;;;;;;6.13;5.45;;;30.40;1.00;;;;;;5053525;28;20169;-68
2023/06/14 10:37:24;;;;;;;8.82;5.50;;;32.00;1.00;;;;;;5052568;28;20224;-67
2023/06/14 10:39:50;;;;;;;6.78;5.00;;;31.80;1.00;;;;;;5059230;28;20883;-68
2023/06/14 10:42:16;;;;;;;5.82;5.20;;;31.40;1.00;;;;;;5093254;28;20654;-68
2023/06/14 10:44:43;;;;;;;6.45;5.82;;;31.20;1.00;;;;;;5094048;28;20171;-66
2023/06/14 10:47:23;;;;;;;5.65;5.10;;;30.20;1.00;;;;;;5093349;28;20281;-66
2023/06/14 10:50:07;;;;;;;7.72;5.35;;;30.50;1.00;;;;;;5093346;28;20248;-67
2023/06/14 10:52:43;;;;;;;5.85;5.15;;;31.20;1.00;;;;;;5093382;28;20678;-67
2023/06/14 10:55:14;;;;;;;5.55;5.03;;;30.70;1.00;;;;;;5093554;28;20175;-67
2023/06/14 10:57:57;;;;;;;7.95;5.30;;;29.90;1.00;;;;;;5092074;28;20301;-66
2023/06/14 11:00:25;;;;;;;10.25;5.35;;;30.00;1.00;;;;;;5093389;28;20220;-67
2023/06/14 11:03:27;;;;;;;5.43;5.00;;;30.10;1.00;;;;;;5093226;28;20179;-67
2023/06/14 11:05:57;;;;;;;6.03;5.43;;;29.60;1.00;;;;;;5074880;28;20580;-67
2023/06/14 11:08:54;;;;;;;5.57;5.03;;;29.30;1.00;;;;;;5093174;28;20172;-67
2023/06/14 11:11:23;;;;;;;6.38;5.00;;;29.90;1.00;;;;;;5092471;28;20209;-67
2023/06/14 11:13:49;;;;;;;5.47;4.60;;;29.40;1.00;;;;;;5092904;28;20203;-66
2023/06/14 11:16:16;;;;;;;5.38;4.88;;;29.50;1.00;;;;;;5093073;28;20685;-66
2023/06/14 11:18:43;;;;;;;6.30;5.70;;;29.60;1.00;;;;;;5092676;28;20183;-66
2023/06/14 11:21:09;;;;;;;6.15;4.88;;;29.80;1.00;;;;;;5075091;28;20176;-67
2023/06/14 11:23:35;;;;;;;9.73;4.85;;;30.40;1.00;;;;;;5093040;28;20645;-66
2023/06/14 11:26:02;;;;;;;5.25;4.70;;;30.40;1.00;;;;;;5092092;28;20179;-66
2023/06/14 11:28:40;;;;;;;7.43;5.10;;;30.50;1.00;;;;;;5092528;28;20236;-67
2023/06/14 11:31:07;;;;;;;5.43;4.95;;;30.40;1.00;;;;;;5092721;28;20203;-65
2023/06/14 11:33:33;;;;;;;5.88;5.38;;;29.40;1.00;;;;;;5092353;28;20215;-66
2023/06/14 11:36:02;;;;;;;5.95;5.38;;;29.20;1.00;;;;;;5092907;28;20216;-67
2023/06/14 11:38:28;;;;;;;11.18;6.05;;;28.80;1.00;;;;;;5092398;28;20171;-66
2023/06/14 11:40:58;;;;;;;5.88;4.97;;;28.50;1.00;;;;;;5092400;28;20486;-66
2023/06/14 11:43:32;;;;;;;5.63;5.00;;;28.70;1.00;;;;;;5092437;28;20217;-67
2023/06/14 11:45:58;;;;;;;6.85;5.50;;;28.80;1.00;;;;;;5092793;28;20258;-66
2023/06/14 11:48:35;;;;;;;7.10;5.40;;;29.20;1.00;;;;;;5092809;28;20588;-66
2023/06/14 11:51:01;;;;;;;5.88;5.38;;;29.10;1.00;;;;;;5091580;28;20168;-65
2023/06/14 11:53:26;;;;;;;12.88;5.15;;;28.60;1.00;;;;;;5092190;28;20200;-66
2023/06/14 11:55:52;;;;;;;10.30;6.15;;;28.90;1.00;;;;;;5092729;28;20191;-65
2023/06/14 11:58:18;;;;;;;7.40;5.43;;;28.50;1.00;;;;;;5092342;28;20182;-65
2023/06/14 12:00:44;;;;;;;6.35;4.90;;;28.30;1.00;;;;;;5074239;28;20504;-66
2023/06/14 12:03:12;;;;;;;8.43;5.18;;;28.30;1.00;;;;;;5092016;28;20174;-66
2023/06/14 12:05:38;;;;;;;10.32;5.28;;;28.30;1.00;;;;;;5092361;28;20179;-66
2023/06/14 12:08:07;;;;;;;9.32;5.35;;;28.80;1.00;;;;;;5092629;28;20171;-65
2023/06/14 12:10:43;;;;;;;8.77;5.47;;;28.90;1.00;;;;;;5091531;28;20730;-65
2023/06/14 12:13:10;;;;;;;6.95;5.07;;;28.00;1.00;;;;;;5092289;28;20677;-66
2023/06/14 12:15:35;;;;;;;5.55;4.90;;;28.20;1.00;;;;;;5091796;28;20313;-65
2023/06/14 12:18:05;;;;;;;15.38;5.57;;;28.80;1.00;;;;;;5091922;28;20678;-68
2023/06/14 12:20:31;;;;;;;7.68;5.32;;;29.00;1.00;;;;;;5092313;28;20179;-66
2023/06/14 12:23:00;;;;;;;4.75;4.35;;;28.80;1.00;;;;;;5092906;28;20642;-66
2023/06/14 12:25:36;;;;;;;7.45;4.88;;;28.80;1.00;;;;;;5092500;28;20179;-66
2023/06/14 12:28:09;;;;;;;5.40;4.90;;;27.80;1.00;;;;;;5091789;28;20651;-65
2023/06/14 12:30:38;;;;;;;8.70;4.68;;;27.90;1.00;;;;;;5092234;28;20168;-65
2023/06/14 12:33:04;;;;;;;5.28;4.28;;;27.70;1.00;;;;;;5091418;28;20227;-66
2023/06/14 12:35:30;;;;;;;13.55;4.90;;;28.30;1.00;;;;;;5091861;28;20303;-67
2023/06/14 12:37:56;;;;;;;6.18;4.40;;;28.70;1.00;;;;;;5092502;28;20244;-65
2023/06/14 12:40:22;;;;;;;5.13;4.57;;;28.20;1.00;;;;;;5091492;28;20210;-65
2023/06/14 12:42:48;;;;;;;5.63;5.03;;;27.70;1.00;;;;;;5091990;28;20168;-65
2023/06/14 12:45:13;;;;;;;5.15;4.50;;;27.70;1.00;;;;;;5092020;28;20172;-66
2023/06/14 12:47:39;;;;;;;4.85;4.45;;;27.40;1.00;;;;;;5091546;28;20692;-67
2023/06/14 12:50:06;;;;;;;4.85;4.45;;;27.20;1.00;;;;;;5091889;28;20168;-65
2023/06/14 12:52:35;;;;;;;5.72;4.30;;;27.30;1.00;;;;;;5092551;28;20210;-66